This is the latest recevied weather packets stored in our database for station/object K7AEL. If no packets are shown the sender has not sent any weather packets the latest 1 day(s).
| Time | Temp. | Humidity | Pressure | Rain* | Wind** | Luminosity | Snow |
|---|---|---|---|---|---|---|---|
| 1778015002 | 23.33° C | 41% | 1012.2 hPa | 0 mm | 3.58 m/s, 263° | 693 W/m² | - |
| 1778014698 | 23.89° C | 42% | 1012.3 hPa | 0 mm | 1.34 m/s, 145° | 241 W/m² | - |
| 1778014397 | 24.44° C | 40% | 1011.9 hPa | 0 mm | 2.24 m/s, 273° | 220 W/m² | - |
| 1778014093 | 23.89° C | 40% | 1012.2 hPa | 0 mm | 2.68 m/s, 294° | 198 W/m² | - |
| 1778013791 | 25° C | 41% | 1012.1 hPa | 0 mm | 1.34 m/s, 224° | 804 W/m² | - |
| 1778013488 | 25° C | 41% | 1012.2 hPa | 0 mm | 2.68 m/s, 340° | 759 W/m² | - |
| 1778013185 | 25° C | 42% | 1012.3 hPa | 0 mm | 1.34 m/s, 208° | 804 W/m² | - |
| 1778012881 | 25° C | 41% | 1012.3 hPa | 0 mm | 0.89 m/s, 280° | 818 W/m² | - |
| 1778012577 | 25° C | 38% | 1012.2 hPa | 0 mm | 1.79 m/s, 259° | 788 W/m² | - |
| 1778012274 | 24.44° C | 40% | 1012.3 hPa | 0 mm | 3.13 m/s, 282° | 889 W/m² | - |
| 1778011971 | 24.44° C | 41% | 1012.4 hPa | 0 mm | 3.58 m/s, 334° | 877 W/m² | - |
| 1778011670 | 23.89° C | 43% | 1012.5 hPa | 0 mm | 0.45 m/s, 229° | 863 W/m² | - |
| 1778011366 | 23.89° C | 43% | 1012.4 hPa | 0 mm | 0.45 m/s, 201° | 433 W/m² | - |
| 1778011061 | 24.44° C | 43% | 1012.5 hPa | 0 mm | 0.89 m/s, 226° | 881 W/m² | - |
| 1778010759 | 23.89° C | 44% | 1012.5 hPa | 0 mm | 0.45 m/s, 209° | 382 W/m² | - |
| 1778010456 | 23.33° C | 46% | 1012.5 hPa | 0 mm | 1.34 m/s, 264° | 256 W/m² | - |
| 1778010153 | 23.89° C | 47% | 1012.7 hPa | 0 mm | 1.34 m/s, 227° | 495 W/m² | - |
| 1778009848 | 23.89° C | 46% | 1012.6 hPa | 0 mm | 0.89 m/s, 215° | 816 W/m² | - |
| 1778009546 | 23.33° C | 48% | 1012.6 hPa | 0 mm | 1.79 m/s, 317° | 789 W/m² | - |
| 1778009245 | 22.78° C | 50% | 1012.6 hPa | 0 mm | 1.34 m/s, 210° | 873 W/m² | - |
| 1778008942 | 22.78° C | 50% | 1012.7 hPa | 0 mm | 2.24 m/s, 266° | 241 W/m² | - |
| 1778008640 | 22.78° C | 50% | 1012.6 hPa | 0 mm | 2.24 m/s, 273° | 863 W/m² | - |
| 1778008338 | 22.78° C | 50% | 1012.9 hPa | 0 mm | 1.79 m/s, 201° | 850 W/m² | - |
| 1778008034 | 22.22° C | 51% | 1012.9 hPa | 0 mm | 0.89 m/s, 180° | 767 W/m² | - |
| 1778007733 | 22.22° C | 52% | 1012.9 hPa | 0 mm | 0.89 m/s, 218° | 201 W/m² | - |
* Rain latest hour (hover to see other rain measurements)
** Current wind speed in m/s (hover to see current wind gust speed)